sensor_id;sensor_type;location;lat;lon;timestamp;temperature;humidity
58983;DHT22;44771;49.982;8.560;2023-04-01T00:04:41;10.20;99.90
58983;DHT22;44771;49.982;8.560;2023-04-01T00:09:44;10.20;99.90
58983;DHT22;44771;49.982;8.560;2023-04-01T00:14:46;10.20;99.90
58983;DHT22;44771;49.982;8.560;2023-04-01T00:19:48;10.20;99.90
58983;DHT22;44771;49.982;8.560;2023-04-01T00:24:51;10.10;99.90
58983;DHT22;44771;49.982;8.560;2023-04-01T00:29:53;10.20;99.90
58983;DHT22;44771;49.982;8.560;2023-04-01T00:34:57;10.10;99.90
58983;DHT22;44771;49.982;8.560;2023-04-01T00:40:01;10.10;99.90
58983;DHT22;44771;49.982;8.560;2023-04-01T00:45:29;10.10;99.90
58983;DHT22;44771;49.982;8.560;2023-04-01T00:50:33;10.10;99.90
58983;DHT22;44771;49.982;8.560;2023-04-01T00:55:41;10.10;99.90
58983;DHT22;44771;49.982;8.560;2023-04-01T01:00:46;10.10;99.90
58983;DHT22;44771;49.982;8.560;2023-04-01T01:06:09;10.10;99.90
58983;DHT22;44771;49.982;8.560;2023-04-01T01:11:14;10.10;99.90
58983;DHT22;44771;49.982;8.560;2023-04-01T01:16:24;10.10;99.90
58983;DHT22;44771;49.982;8.560;2023-04-01T01:22:02;10.10;99.90
58983;DHT22;44771;49.982;8.560;2023-04-01T01:27:10;10.00;99.90
58983;DHT22;44771;49.982;8.560;2023-04-01T01:32:23;10.00;99.90
58983;DHT22;44771;49.982;8.560;2023-04-01T01:37:29;10.00;99.90
58983;DHT22;44771;49.982;8.560;2023-04-01T01:42:35;10.00;99.90
58983;DHT22;44771;49.982;8.560;2023-04-01T01:47:38;10.00;99.90
58983;DHT22;44771;49.982;8.560;2023-04-01T01:52:43;10.00;99.90
58983;DHT22;44771;49.982;8.560;2023-04-01T01:57:45;9.90;99.90
58983;DHT22;44771;49.982;8.560;2023-04-01T02:02:48;10.00;99.90
58983;DHT22;44771;49.982;8.560;2023-04-01T02:07:55;9.90;99.90
58983;DHT22;44771;49.982;8.560;2023-04-01T02:13:05;9.90;99.90
58983;DHT22;44771;49.982;8.560;2023-04-01T02:18:09;10.00;99.90
58983;DHT22;44771;49.982;8.560;2023-04-01T02:23:14;9.90;99.90
58983;DHT22;44771;49.982;8.560;2023-04-01T02:28:17;9.90;99.90
58983;DHT22;44771;49.982;8.560;2023-04-01T02:33:20;9.90;99.90
58983;DHT22;44771;49.982;8.560;2023-04-01T02:38:23;9.90;99.90
58983;DHT22;44771;49.982;8.560;2023-04-01T02:43:25;9.90;99.90
58983;DHT22;44771;49.982;8.560;2023-04-01T02:48:27;9.80;99.90
58983;DHT22;44771;49.982;8.560;2023-04-01T02:53:30;9.80;99.90
58983;DHT22;44771;49.982;8.560;2023-04-01T02:58:32;9.80;99.90
58983;DHT22;44771;49.982;8.560;2023-04-01T03:03:34;9.70;99.90
58983;DHT22;44771;49.982;8.560;2023-04-01T03:08:38;9.70;99.90
58983;DHT22;44771;49.982;8.560;2023-04-01T03:13:40;9.60;99.90
58983;DHT22;44771;49.982;8.560;2023-04-01T03:18:41;9.60;99.90
58983;DHT22;44771;49.982;8.560;2023-04-01T03:23:44;9.60;99.90
58983;DHT22;44771;49.982;8.560;2023-04-01T03:28:46;9.70;99.90
58983;DHT22;44771;49.982;8.560;2023-04-01T03:33:48;9.60;99.90
58983;DHT22;44771;49.982;8.560;2023-04-01T03:38:51;9.70;99.90
58983;DHT22;44771;49.982;8.560;2023-04-01T03:43:53;9.70;99.90
58983;DHT22;44771;49.982;8.560;2023-04-01T03:48:55;9.70;99.90
58983;DHT22;44771;49.982;8.560;2023-04-01T03:53:58;9.70;99.90
58983;DHT22;44771;49.982;8.560;2023-04-01T03:59:02;9.70;99.90
58983;DHT22;44771;49.982;8.560;2023-04-01T04:04:05;9.70;99.90
58983;DHT22;44771;49.982;8.560;2023-04-01T04:09:08;9.70;99.90
58983;DHT22;44771;49.982;8.560;2023-04-01T04:14:10;9.70;99.90
58983;DHT22;44771;49.982;8.560;2023-04-01T04:19:12;9.70;99.90
58983;DHT22;44771;49.982;8.560;2023-04-01T04:24:15;9.80;99.90
58983;DHT22;44771;49.982;8.560;2023-04-01T04:29:17;9.80;99.90
58983;DHT22;44771;49.982;8.560;2023-04-01T04:34:18;9.80;99.90
58983;DHT22;44771;49.982;8.560;2023-04-01T04:39:21;9.80;99.90
58983;DHT22;44771;49.982;8.560;2023-04-01T04:44:23;9.80;99.90
58983;DHT22;44771;49.982;8.560;2023-04-01T04:49:25;9.80;99.90
58983;DHT22;44771;49.982;8.560;2023-04-01T04:54:29;9.90;99.90
58983;DHT22;44771;49.982;8.560;2023-04-01T04:59:31;9.80;99.90
58983;DHT22;44771;49.982;8.560;2023-04-01T05:04:34;9.90;99.90
58983;DHT22;44771;49.982;8.560;2023-04-01T05:09:38;9.80;99.90
58983;DHT22;44771;49.982;8.560;2023-04-01T05:14:39;9.90;99.90
58983;DHT22;44771;49.982;8.560;2023-04-01T05:19:41;9.90;99.90
58983;DHT22;44771;49.982;8.560;2023-04-01T05:24:44;9.90;99.90
58983;DHT22;44771;49.982;8.560;2023-04-01T05:29:46;9.90;99.90
58983;DHT22;44771;49.982;8.560;2023-04-01T05:34:50;9.90;99.90
58983;DHT22;44771;49.982;8.560;2023-04-01T05:39:53;9.80;99.90
58983;DHT22;44771;49.982;8.560;2023-04-01T05:44:55;9.90;99.90
58983;DHT22;44771;49.982;8.560;2023-04-01T05:49:56;9.80;99.90
58983;DHT22;44771;49.982;8.560;2023-04-01T05:55:00;9.70;99.90
58983;DHT22;44771;49.982;8.560;2023-04-01T06:00:02;9.70;99.90
58983;DHT22;44771;49.982;8.560;2023-04-01T06:05:13;9.60;99.90
58983;DHT22;44771;49.982;8.560;2023-04-01T06:10:18;9.50;99.90
58983;DHT22;44771;49.982;8.560;2023-04-01T06:15:30;9.60;99.90
58983;DHT22;44771;49.982;8.560;2023-04-01T06:20:39;9.60;99.90
58983;DHT22;44771;49.982;8.560;2023-04-01T06:26:05;9.60;99.90
58983;DHT22;44771;49.982;8.560;2023-04-01T06:31:20;9.70;99.90
58983;DHT22;44771;49.982;8.560;2023-04-01T06:36:39;9.80;99.90
58983;DHT22;44771;49.982;8.560;2023-04-01T06:47:23;9.80;99.90
58983;DHT22;44771;49.982;8.560;2023-04-01T06:52:38;9.90;99.90
58983;DHT22;44771;49.982;8.560;2023-04-01T06:57:46;9.90;99.90
58983;DHT22;44771;49.982;8.560;2023-04-01T07:02:52;9.90;99.90
58983;DHT22;44771;49.982;8.560;2023-04-01T07:07:57;9.90;99.90
58983;DHT22;44771;49.982;8.560;2023-04-01T07:13:05;9.80;99.90
58983;DHT22;44771;49.982;8.560;2023-04-01T07:18:12;9.90;99.90
58983;DHT22;44771;49.982;8.560;2023-04-01T07:23:20;10.00;99.90
58983;DHT22;44771;49.982;8.560;2023-04-01T07:28:23;10.10;99.90
58983;DHT22;44771;49.982;8.560;2023-04-01T07:33:32;10.10;99.90
58983;DHT22;44771;49.982;8.560;2023-04-01T07:38:41;10.20;99.90
58983;DHT22;44771;49.982;8.560;2023-04-01T07:43:56;10.20;99.90
58983;DHT22;44771;49.982;8.560;2023-04-01T07:49:04;10.20;99.90
58983;DHT22;44771;49.982;8.560;2023-04-01T07:54:11;10.20;99.90
58983;DHT22;44771;49.982;8.560;2023-04-01T07:59:20;10.20;99.90
58983;DHT22;44771;49.982;8.560;2023-04-01T08:04:32;10.20;99.90
58983;DHT22;44771;49.982;8.560;2023-04-01T08:09:43;10.20;99.90
58983;DHT22;44771;49.982;8.560;2023-04-01T08:14:55;10.30;99.90
58983;DHT22;44771;49.982;8.560;2023-04-01T08:20:08;10.40;99.90
58983;DHT22;44771;49.982;8.560;2023-04-01T08:25:18;10.40;99.90
58983;DHT22;44771;49.982;8.560;2023-04-01T08:30:24;10.40;99.90
58983;DHT22;44771;49.982;8.560;2023-04-01T08:35:29;10.10;99.90
58983;DHT22;44771;49.982;8.560;2023-04-01T08:40:53;9.80;99.90
58983;DHT22;44771;49.982;8.560;2023-04-01T08:57:37;9.70;99.90
58983;DHT22;44771;49.982;8.560;2023-04-01T09:08:28;9.90;99.90
58983;DHT22;44771;49.982;8.560;2023-04-01T09:14:01;10.00;99.90
58983;DHT22;44771;49.982;8.560;2023-04-01T09:19:20;10.20;99.90
58983;DHT22;44771;49.982;8.560;2023-04-01T09:24:39;10.20;99.90
58983;DHT22;44771;49.982;8.560;2023-04-01T09:35:24;10.30;99.90
58983;DHT22;44771;49.982;8.560;2023-04-01T09:40:40;10.30;99.90
58983;DHT22;44771;49.982;8.560;2023-04-01T09:46:06;10.40;99.90
58983;DHT22;44771;49.982;8.560;2023-04-01T09:51:26;10.40;99.90
58983;DHT22;44771;49.982;8.560;2023-04-01T09:56:52;10.60;99.90
58983;DHT22;44771;49.982;8.560;2023-04-01T10:13:22;10.80;99.90
58983;DHT22;44771;49.982;8.560;2023-04-01T10:47:36;11.00;99.90
58983;DHT22;44771;49.982;8.560;2023-04-01T10:53:12;10.80;99.90
58983;DHT22;44771;49.982;8.560;2023-04-01T10:58:53;10.80;99.90
58983;DHT22;44771;49.982;8.560;2023-04-01T11:10:23;11.20;99.90
58983;DHT22;44771;49.982;8.560;2023-04-01T11:15:54;11.40;99.90
58983;DHT22;44771;49.982;8.560;2023-04-01T11:26:41;11.70;99.90
58983;DHT22;44771;49.982;8.560;2023-04-01T11:31:58;11.90;99.90
58983;DHT22;44771;49.982;8.560;2023-04-01T11:37:12;12.00;99.90
58983;DHT22;44771;49.982;8.560;2023-04-01T11:42:25;11.90;99.90
58983;DHT22;44771;49.982;8.560;2023-04-01T11:47:56;12.00;99.90
58983;DHT22;44771;49.982;8.560;2023-04-01T11:53:15;12.00;99.90
58983;DHT22;44771;49.982;8.560;2023-04-01T11:58:35;11.90;99.90
58983;DHT22;44771;49.982;8.560;2023-04-01T12:03:51;11.80;99.90
58983;DHT22;44771;49.982;8.560;2023-04-01T12:09:03;11.90;99.90
58983;DHT22;44771;49.982;8.560;2023-04-01T12:14:13;11.90;99.90
58983;DHT22;44771;49.982;8.560;2023-04-01T12:19:26;11.90;99.90
58983;DHT22;44771;49.982;8.560;2023-04-01T12:24:45;11.70;99.90
58983;DHT22;44771;49.982;8.560;2023-04-01T12:30:16;11.70;99.90
58983;DHT22;44771;49.982;8.560;2023-04-01T12:35:24;11.60;99.90
58983;DHT22;44771;49.982;8.560;2023-04-01T12:40:49;11.60;99.90
58983;DHT22;44771;49.982;8.560;2023-04-01T12:45:59;11.70;99.90
58983;DHT22;44771;49.982;8.560;2023-04-01T12:56:43;11.20;99.90
58983;DHT22;44771;49.982;8.560;2023-04-01T13:01:59;11.10;99.90
58983;DHT22;44771;49.982;8.560;2023-04-01T13:07:36;11.20;99.90
58983;DHT22;44771;49.982;8.560;2023-04-01T13:12:56;10.90;99.90
58983;DHT22;44771;49.982;8.560;2023-04-01T13:18:12;10.80;99.90
58983;DHT22;44771;49.982;8.560;2023-04-01T13:23:29;10.80;99.90
58983;DHT22;44771;49.982;8.560;2023-04-01T13:28:38;10.60;99.90
58983;DHT22;44771;49.982;8.560;2023-04-01T13:33:46;10.60;99.90
58983;DHT22;44771;49.982;8.560;2023-04-01T13:39:07;10.80;99.90
58983;DHT22;44771;49.982;8.560;2023-04-01T13:44:15;10.70;99.90
58983;DHT22;44771;49.982;8.560;2023-04-01T13:49:45;10.70;99.90
58983;DHT22;44771;49.982;8.560;2023-04-01T13:55:07;10.50;99.90
58983;DHT22;44771;49.982;8.560;2023-04-01T14:00:42;10.50;99.90
58983;DHT22;44771;49.982;8.560;2023-04-01T14:06:00;10.60;99.90
58983;DHT22;44771;49.982;8.560;2023-04-01T14:11:13;10.70;99.90
58983;DHT22;44771;49.982;8.560;2023-04-01T14:16:31;10.80;99.90
58983;DHT22;44771;49.982;8.560;2023-04-01T14:21:41;10.80;99.90
58983;DHT22;44771;49.982;8.560;2023-04-01T14:27:12;10.70;99.90
58983;DHT22;44771;49.982;8.560;2023-04-01T14:32:23;10.70;99.90
58983;DHT22;44771;49.982;8.560;2023-04-01T14:37:58;10.70;99.90
58983;DHT22;44771;49.982;8.560;2023-04-01T14:43:18;10.90;99.90
58983;DHT22;44771;49.982;8.560;2023-04-01T14:48:25;11.00;99.90
58983;DHT22;44771;49.982;8.560;2023-04-01T14:53:34;11.00;99.90
58983;DHT22;44771;49.982;8.560;2023-04-01T14:58:44;10.90;99.90
58983;DHT22;44771;49.982;8.560;2023-04-01T15:03:52;10.80;99.90
58983;DHT22;44771;49.982;8.560;2023-04-01T15:09:03;10.70;99.90
58983;DHT22;44771;49.982;8.560;2023-04-01T15:14:35;10.50;99.90
58983;DHT22;44771;49.982;8.560;2023-04-01T15:19:48;10.40;99.90
58983;DHT22;44771;49.982;8.560;2023-04-01T15:25:06;10.40;99.90
58983;DHT22;44771;49.982;8.560;2023-04-01T15:30:27;10.40;99.90
58983;DHT22;44771;49.982;8.560;2023-04-01T15:35:38;10.40;99.90
58983;DHT22;44771;49.982;8.560;2023-04-01T15:40:47;10.50;99.90
58983;DHT22;44771;49.982;8.560;2023-04-01T15:45:57;10.70;99.90
58983;DHT22;44771;49.982;8.560;2023-04-01T15:51:21;10.80;99.90
58983;DHT22;44771;49.982;8.560;2023-04-01T15:56:40;10.90;99.90
58983;DHT22;44771;49.982;8.560;2023-04-01T16:01:51;11.00;99.90
58983;DHT22;44771;49.982;8.560;2023-04-01T16:07:03;10.90;99.90
58983;DHT22;44771;49.982;8.560;2023-04-01T16:12:16;11.00;99.90
58983;DHT22;44771;49.982;8.560;2023-04-01T16:17:29;11.00;99.90
58983;DHT22;44771;49.982;8.560;2023-04-01T16:22:34;10.90;99.90
58983;DHT22;44771;49.982;8.560;2023-04-01T16:27:47;10.80;99.90
58983;DHT22;44771;49.982;8.560;2023-04-01T16:32:57;10.80;99.90
58983;DHT22;44771;49.982;8.560;2023-04-01T16:38:05;10.80;99.90
58983;DHT22;44771;49.982;8.560;2023-04-01T16:43:20;10.80;99.90
58983;DHT22;44771;49.982;8.560;2023-04-01T16:48:27;10.80;99.90
58983;DHT22;44771;49.982;8.560;2023-04-01T16:53:40;10.80;99.90
58983;DHT22;44771;49.982;8.560;2023-04-01T16:58:57;10.70;99.90
58983;DHT22;44771;49.982;8.560;2023-04-01T17:04:10;10.60;99.90
58983;DHT22;44771;49.982;8.560;2023-04-01T17:09:31;10.70;99.90
58983;DHT22;44771;49.982;8.560;2023-04-01T17:14:45;10.70;99.90
58983;DHT22;44771;49.982;8.560;2023-04-01T17:20:11;10.50;99.90
58983;DHT22;44771;49.982;8.560;2023-04-01T17:25:25;10.60;99.90
58983;DHT22;44771;49.982;8.560;2023-04-01T17:30:34;10.40;99.90
58983;DHT22;44771;49.982;8.560;2023-04-01T17:35:40;10.40;99.90
58983;DHT22;44771;49.982;8.560;2023-04-01T17:40:56;10.30;99.90
58983;DHT22;44771;49.982;8.560;2023-04-01T17:46:10;10.20;99.90
58983;DHT22;44771;49.982;8.560;2023-04-01T17:51:25;10.20;99.90
58983;DHT22;44771;49.982;8.560;2023-04-01T17:56:44;10.10;99.90
58983;DHT22;44771;49.982;8.560;2023-04-01T18:01:56;10.10;99.90
58983;DHT22;44771;49.982;8.560;2023-04-01T18:07:14;10.00;99.90
58983;DHT22;44771;49.982;8.560;2023-04-01T18:12:52;9.90;99.90
58983;DHT22;44771;49.982;8.560;2023-04-01T18:18:10;9.80;99.90
58983;DHT22;44771;49.982;8.560;2023-04-01T18:23:26;9.90;99.90
58983;DHT22;44771;49.982;8.560;2023-04-01T18:28:35;9.80;99.90
58983;DHT22;44771;49.982;8.560;2023-04-01T18:33:47;9.80;99.90
58983;DHT22;44771;49.982;8.560;2023-04-01T18:38:52;9.90;99.90
58983;DHT22;44771;49.982;8.560;2023-04-01T18:44:03;9.90;99.90
58983;DHT22;44771;49.982;8.560;2023-04-01T18:49:16;9.90;99.90
58983;DHT22;44771;49.982;8.560;2023-04-01T18:54:27;9.80;99.90
58983;DHT22;44771;49.982;8.560;2023-04-01T18:59:36;9.80;99.90
58983;DHT22;44771;49.982;8.560;2023-04-01T19:04:44;9.70;99.90
58983;DHT22;44771;49.982;8.560;2023-04-01T19:09:48;9.70;99.90
58983;DHT22;44771;49.982;8.560;2023-04-01T19:14:59;9.70;99.90
58983;DHT22;44771;49.982;8.560;2023-04-01T19:20:10;9.60;99.90
58983;DHT22;44771;49.982;8.560;2023-04-01T19:25:29;9.60;99.90
58983;DHT22;44771;49.982;8.560;2023-04-01T19:30:46;9.60;99.90
58983;DHT22;44771;49.982;8.560;2023-04-01T19:35:59;9.60;99.90
58983;DHT22;44771;49.982;8.560;2023-04-01T19:41:17;9.50;99.90
58983;DHT22;44771;49.982;8.560;2023-04-01T19:46:28;9.40;99.90
58983;DHT22;44771;49.982;8.560;2023-04-01T19:51:37;9.50;99.90
58983;DHT22;44771;49.982;8.560;2023-04-01T19:56:47;9.40;99.90
58983;DHT22;44771;49.982;8.560;2023-04-01T20:01:56;9.50;99.90
58983;DHT22;44771;49.982;8.560;2023-04-01T20:07:07;9.40;99.90
58983;DHT22;44771;49.982;8.560;2023-04-01T20:12:20;9.50;99.90
58983;DHT22;44771;49.982;8.560;2023-04-01T20:17:27;9.30;99.90
58983;DHT22;44771;49.982;8.560;2023-04-01T20:22:53;9.30;99.90
58983;DHT22;44771;49.982;8.560;2023-04-01T20:28:01;9.30;99.90
58983;DHT22;44771;49.982;8.560;2023-04-01T20:33:24;9.20;99.90
58983;DHT22;44771;49.982;8.560;2023-04-01T20:39:04;9.00;99.90
58983;DHT22;44771;49.982;8.560;2023-04-01T20:44:11;9.00;99.90
58983;DHT22;44771;49.982;8.560;2023-04-01T20:49:33;8.90;99.90
58983;DHT22;44771;49.982;8.560;2023-04-01T20:54:51;8.90;99.90
58983;DHT22;44771;49.982;8.560;2023-04-01T21:00:07;8.90;99.90
58983;DHT22;44771;49.982;8.560;2023-04-01T21:05:44;8.90;99.90
58983;DHT22;44771;49.982;8.560;2023-04-01T21:10:56;9.00;99.90
58983;DHT22;44771;49.982;8.560;2023-04-01T21:16:15;9.00;99.90
58983;DHT22;44771;49.982;8.560;2023-04-01T21:21:38;9.00;99.90
58983;DHT22;44771;49.982;8.560;2023-04-01T21:26:51;8.90;99.90
58983;DHT22;44771;49.982;8.560;2023-04-01T21:32:06;8.90;99.90
58983;DHT22;44771;49.982;8.560;2023-04-01T21:37:34;8.90;99.90
58983;DHT22;44771;49.982;8.560;2023-04-01T21:42:43;9.00;99.90
58983;DHT22;44771;49.982;8.560;2023-04-01T21:48:08;9.10;99.90
58983;DHT22;44771;49.982;8.560;2023-04-01T21:53:50;9.10;99.90
58983;DHT22;44771;49.982;8.560;2023-04-01T22:04:52;9.20;99.90
58983;DHT22;44771;49.982;8.560;2023-04-01T22:10:03;9.20;99.90
58983;DHT22;44771;49.982;8.560;2023-04-01T22:15:16;9.20;99.90
58983;DHT22;44771;49.982;8.560;2023-04-01T22:20:28;9.20;99.90
58983;DHT22;44771;49.982;8.560;2023-04-01T22:25:51;9.10;99.90
58983;DHT22;44771;49.982;8.560;2023-04-01T22:31:30;9.10;99.90
58983;DHT22;44771;49.982;8.560;2023-04-01T22:37:18;9.00;99.90
58983;DHT22;44771;49.982;8.560;2023-04-01T22:42:42;9.10;99.90
58983;DHT22;44771;49.982;8.560;2023-04-01T22:47:52;9.10;99.90
58983;DHT22;44771;49.982;8.560;2023-04-01T22:53:04;9.00;99.90
58983;DHT22;44771;49.982;8.560;2023-04-01T22:58:11;9.10;99.90
58983;DHT22;44771;49.982;8.560;2023-04-01T23:03:19;9.10;99.90
58983;DHT22;44771;49.982;8.560;2023-04-01T23:08:49;9.00;99.90
58983;DHT22;44771;49.982;8.560;2023-04-01T23:14:04;9.00;99.90
58983;DHT22;44771;49.982;8.560;2023-04-01T23:19:14;8.90;99.90
58983;DHT22;44771;49.982;8.560;2023-04-01T23:24:21;8.90;99.90
58983;DHT22;44771;49.982;8.560;2023-04-01T23:29:27;8.90;99.90
58983;DHT22;44771;49.982;8.560;2023-04-01T23:34:32;8.80;99.90
58983;DHT22;44771;49.982;8.560;2023-04-01T23:39:35;8.80;99.90
58983;DHT22;44771;49.982;8.560;2023-04-01T23:44:38;8.80;99.90
58983;DHT22;44771;49.982;8.560;2023-04-01T23:49:44;8.90;99.90
58983;DHT22;44771;49.982;8.560;2023-04-01T23:54:49;8.90;99.90
